Tower City, Pennsylvania
Current Conditions -  °F | °C
As of 7:58 AM on Monday 22 Dec 2014 (Local Time) from KMUI Reporting Station
Overcast Overcast  
Wind Chill: 21°   Ceiling: 2100
Heat Index: 21°   Visibility: 10mi
Dew Point: 19°   Wind: 1mph
Humidity: 89%   Direction: 60°ENE
Pressure: 30.31"   Gusts: NA
Location:  40.59°N, 76.55°W
Report Text: KMUI 221258Z AUTO 06001KT 10SM OVC021 M06/M07 A3031 RMK AO2 SLP275 T10601075
Loading
Personal Weather Stations






























Interactive Weather Map New forecast layout! Learn more

10-Day Weather Forecast

Advertisements
Track Severe Weather on mobile